createdAt,value
2018-02-25T00:01:07.383Z,99297.86
2018-02-25T00:03:37.194Z,99299.93
2018-02-25T00:06:07.129Z,99303.73
2018-02-25T00:08:37.052Z,99297.95
2018-02-25T00:11:07.001Z,99294.04
2018-02-25T00:13:36.910Z,99299.08
2018-02-25T00:16:06.809Z,99298.69
2018-02-25T00:18:36.752Z,99294.56
2018-02-25T00:21:06.617Z,99298.36
2018-02-25T00:23:36.594Z,99292.07
2018-02-25T00:26:06.461Z,99291.88
2018-02-25T00:28:36.369Z,99289.33
2018-02-25T00:31:06.328Z,99294.31
2018-02-25T00:33:36.211Z,99302.26
2018-02-25T00:36:06.090Z,99297.94
2018-02-25T00:38:35.994Z,99299.59
2018-02-25T00:41:05.864Z,99303.18
2018-02-25T00:43:35.708Z,99293.59
2018-02-25T00:46:05.427Z,99296.58
2018-02-25T00:48:35.333Z,99301.61
2018-02-25T00:51:05.150Z,99291.01
2018-02-25T00:53:35.034Z,99298.17
2018-02-25T00:56:04.882Z,99299.97
2018-02-25T00:58:34.528Z,99299.48
2018-02-25T01:01:04.401Z,99298.75
2018-02-25T01:03:34.292Z,99298.47
2018-02-25T01:06:04.229Z,99294.55
2018-02-25T01:08:34.327Z,99291.36
2018-02-25T01:11:04.318Z,99285.17
2018-02-25T01:13:34.220Z,99282.76
2018-02-25T01:16:04.149Z,99282.61
2018-02-25T01:18:34.095Z,99280.73
2018-02-25T01:21:03.949Z,99287.06
2018-02-25T01:23:33.922Z,99287.22
2018-02-25T01:26:03.830Z,99283.81
2018-02-25T01:28:33.762Z,99287.86
2018-02-25T01:31:03.660Z,99286.80
2018-02-25T01:33:33.578Z,99286.65
2018-02-25T01:36:03.459Z,99283.01
2018-02-25T01:38:33.311Z,99284.74
2018-02-25T01:41:03.355Z,99277.37
2018-02-25T01:46:01.970Z,99284.69
2018-02-25T01:48:31.914Z,99278.59
2018-02-25T01:51:06.157Z,99283.23
2018-02-25T01:53:36.309Z,99285.95
2018-02-25T01:56:06.266Z,99286.23
2018-02-25T01:58:36.147Z,99279.47
2018-02-25T02:01:05.984Z,99279.39
2018-02-25T02:03:35.905Z,99279.28
2018-02-25T02:06:05.595Z,99277.27
2018-02-25T02:08:35.216Z,99273.73
2018-02-25T02:11:04.853Z,99278.16
2018-02-25T02:13:34.792Z,99280.97
2018-02-25T02:16:04.716Z,99277.73
2018-02-25T02:18:34.273Z,99280.83
2018-02-25T02:21:04.091Z,99276.16
2018-02-25T02:23:34.080Z,99286.19
2018-02-25T02:26:04.002Z,99280.89
2018-02-25T02:28:33.906Z,99287.27
2018-02-25T02:31:03.831Z,99276.66
2018-02-25T02:33:33.731Z,99290.95
2018-02-25T02:36:03.603Z,99282.88
2018-02-25T02:38:33.537Z,99289.52
2018-02-25T02:41:03.197Z,99284.33
2018-02-25T02:43:33.022Z,99279.69
2018-02-25T02:46:02.892Z,99285.44
2018-02-25T02:48:32.783Z,99290.06
2018-02-25T02:51:02.638Z,99286.54
2018-02-25T02:53:36.504Z,99287.09
2018-02-25T02:56:06.429Z,99285.17
2018-02-25T02:58:36.310Z,99285.14
2018-02-25T03:01:06.202Z,99279.27
2018-02-25T03:03:36.069Z,99280.66
2018-02-25T03:06:05.930Z,99277.30
2018-02-25T03:08:35.837Z,99282.88
2018-02-25T03:11:05.720Z,99283.21
2018-02-25T03:13:35.618Z,99283.34
2018-02-25T03:16:05.545Z,99287.66
2018-02-25T03:18:35.451Z,99275.19
2018-02-25T03:21:05.390Z,99284.34
2018-02-25T03:23:35.223Z,99281.56
2018-02-25T03:26:05.079Z,99285.35
2018-02-25T03:28:34.940Z,99288.29
2018-02-25T03:31:04.591Z,99293.20
2018-02-25T03:33:34.230Z,99286.40
2018-02-25T03:36:04.113Z,99288.24
2018-02-25T03:38:33.733Z,99292.83
2018-02-25T03:41:03.589Z,99287.20
2018-02-25T03:43:33.413Z,99291.48
2018-02-25T03:46:03.293Z,99282.66
2018-02-25T03:48:33.184Z,99286.85
2018-02-25T03:51:03.020Z,99284.25
2018-02-25T03:53:32.977Z,99274.50
2018-02-25T03:56:03.245Z,99279.29
2018-02-25T03:58:33.116Z,99286.45
2018-02-25T04:01:03.015Z,99280.58
2018-02-25T04:03:32.873Z,99287.64
2018-02-25T04:06:02.787Z,99288.73
2018-02-25T04:08:32.935Z,99288.70
2018-02-25T04:11:02.814Z,99292.23
2018-02-25T04:13:32.461Z,99288.88
2018-02-25T04:16:02.346Z,99288.08
2018-02-25T04:18:32.206Z,99286.53
2018-02-25T04:21:02.140Z,99284.34
2018-02-25T04:23:32.078Z,99278.34
2018-02-25T04:26:01.930Z,99278.00
2018-02-25T04:28:31.497Z,99287.66
2018-02-25T04:31:01.412Z,99284.45
2018-02-25T04:33:31.291Z,99286.69
2018-02-25T04:36:00.918Z,99288.23
2018-02-25T04:38:30.795Z,99288.98
2018-02-25T04:41:00.657Z,99283.48
2018-02-25T04:43:30.573Z,99280.36
2018-02-25T04:46:00.461Z,99286.95
2018-02-25T04:48:30.095Z,99283.80
2018-02-25T04:50:59.732Z,99284.19
2018-02-25T04:53:29.485Z,99288.75
2018-02-25T04:55:59.158Z,99288.06
2018-02-25T04:58:29.029Z,99288.74
2018-02-25T05:00:58.906Z,99281.31
2018-02-25T05:03:28.747Z,99286.28
2018-02-25T05:05:58.626Z,99291.84
2018-02-25T05:08:28.469Z,99292.09
2018-02-25T05:10:58.107Z,99287.00
2018-02-25T05:13:28.020Z,99295.63
2018-02-25T05:15:57.869Z,99290.77
2018-02-25T05:18:27.732Z,99289.97
2018-02-25T05:20:57.621Z,99289.22
2018-02-25T05:23:27.518Z,99289.00
2018-02-25T05:25:57.370Z,99290.78
2018-02-25T05:28:27.266Z,99292.17
2018-02-25T05:30:57.244Z,99291.22
2018-02-25T05:33:27.100Z,99294.05
2018-02-25T05:35:56.999Z,99301.23
2018-02-25T05:38:26.898Z,99292.66
2018-02-25T05:40:56.772Z,99295.34
2018-02-25T05:43:26.640Z,99299.72
2018-02-25T05:45:56.572Z,99296.84
2018-02-25T05:48:26.484Z,99295.64
2018-02-25T05:50:56.374Z,99300.34
2018-02-25T05:53:26.245Z,99302.22
2018-02-25T05:55:56.209Z,99309.88
2018-02-25T05:58:25.893Z,99311.27
2018-02-25T06:00:55.804Z,99309.65
2018-02-25T06:03:25.635Z,99306.92
2018-02-25T06:05:55.481Z,99309.70
2018-02-25T06:08:26.116Z,99313.32
2018-02-25T06:10:56.024Z,99309.73
2018-02-25T06:13:25.928Z,99319.59
2018-02-25T06:15:55.839Z,99317.00
2018-02-25T06:18:25.728Z,99307.73
2018-02-25T06:20:55.421Z,99312.05
2018-02-25T06:23:25.348Z,99316.90
2018-02-25T06:25:55.221Z,99321.28
2018-02-25T06:28:25.378Z,99323.06
2018-02-25T06:30:55.641Z,99325.82
2018-02-25T06:33:27.975Z,99325.18
2018-02-25T06:36:00.623Z,99325.08
2018-02-25T06:38:36.148Z,99325.89
2018-02-25T06:41:05.958Z,99324.63
2018-02-25T06:43:37.035Z,99322.80
2018-02-25T06:46:08.954Z,99327.69
2018-02-25T06:48:39.272Z,99324.19
2018-02-25T06:51:10.022Z,99318.41
2018-02-25T06:53:43.598Z,99326.57
2018-02-25T06:56:14.382Z,99323.48
2018-02-25T06:58:45.265Z,99326.22
2018-02-25T07:01:15.288Z,99324.73
2018-02-25T07:03:44.989Z,99325.55
2018-02-25T07:08:57.346Z,99325.65
2018-02-25T07:11:30.157Z,99336.11
2018-02-25T07:14:00.054Z,99334.78
2018-02-25T07:16:29.906Z,99325.88
2018-02-25T07:19:00.152Z,99336.58
2018-02-25T07:21:30.108Z,99330.75
2018-02-25T07:23:59.989Z,99333.30
2018-02-25T07:26:29.930Z,99326.92
2018-02-25T07:29:00.768Z,99326.97
2018-02-25T07:31:30.613Z,99335.92
2018-02-25T07:34:00.471Z,99335.36
2018-02-25T07:36:30.695Z,99329.78
2018-02-25T07:39:00.366Z,99324.61
2018-02-25T07:41:30.258Z,99337.17
2018-02-25T07:44:00.091Z,99328.80
2018-02-25T07:46:29.944Z,99326.81
2018-02-25T07:49:00.683Z,99325.67
2018-02-25T07:51:30.807Z,99324.92
2018-02-25T07:54:00.615Z,99327.98
2018-02-25T07:56:34.383Z,99320.09
2018-02-25T07:59:04.267Z,99319.52
2018-02-25T08:01:34.145Z,99321.37
2018-02-25T08:04:03.951Z,99329.72
2018-02-25T08:06:33.839Z,99324.14
2018-02-25T08:09:04.104Z,99312.83
2018-02-25T08:11:33.950Z,99318.27
2018-02-25T08:14:05.076Z,99318.16
2018-02-25T08:16:34.997Z,99329.17
2018-02-25T08:19:04.627Z,99326.98
2018-02-25T08:21:36.025Z,99325.09
2018-02-25T08:24:09.610Z,99320.05
2018-02-25T08:26:39.509Z,99321.80
2018-02-25T08:29:09.434Z,99322.63
2018-02-25T08:31:40.186Z,99325.30
2018-02-25T08:34:10.004Z,99322.27
2018-02-25T08:36:40.039Z,99323.20
2018-02-25T08:39:10.103Z,99325.40
2018-02-25T08:41:39.957Z,99318.58
2018-02-25T08:44:09.822Z,99310.88
2018-02-25T08:46:39.336Z,99325.19
2018-02-25T08:49:09.660Z,99312.97
2018-02-25T08:51:39.456Z,99312.23
2018-02-25T08:54:09.601Z,99308.16
2018-02-25T08:56:39.451Z,99310.56
2018-02-25T08:59:09.278Z,99306.44
2018-02-25T09:01:39.307Z,99313.95
2018-02-25T09:04:09.106Z,99317.03
2018-02-25T09:06:39.116Z,99299.64
2018-02-25T09:09:08.973Z,99298.11
2018-02-25T09:11:38.774Z,99295.75
2018-02-25T09:14:08.578Z,99293.16
2018-02-25T09:16:38.419Z,99296.67
2018-02-25T09:19:08.243Z,99285.00
2018-02-25T09:21:38.036Z,99291.64
2018-02-25T09:24:08.112Z,99286.06
2018-02-25T09:26:37.941Z,99279.06
2018-02-25T09:29:07.786Z,99280.29
2018-02-25T09:31:37.585Z,99290.59
2018-02-25T09:34:07.540Z,99281.52
2018-02-25T09:36:37.125Z,99276.61
2018-02-25T09:39:07.429Z,99276.30
2018-02-25T09:41:37.605Z,99281.88
2018-02-25T09:44:07.464Z,99282.19
2018-02-25T09:46:37.280Z,99275.64
2018-02-25T09:49:06.843Z,99276.70
2018-02-25T09:51:36.705Z,99277.50
2018-02-25T09:54:06.516Z,99273.89
2018-02-25T09:56:36.346Z,99266.61
2018-02-25T09:59:06.421Z,99260.92
2018-02-25T10:01:36.277Z,99260.25
2018-02-25T10:04:06.167Z,99260.16
2018-02-25T10:06:35.972Z,99255.70
2018-02-25T10:09:05.257Z,99255.48
2018-02-25T10:11:35.092Z,99252.27
2018-02-25T10:14:05.637Z,99244.75
2018-02-25T10:16:35.261Z,99238.56
2018-02-25T10:19:05.196Z,99239.25
2018-02-25T10:21:35.032Z,99236.22
2018-02-25T10:24:05.480Z,99237.77
2018-02-25T10:26:35.322Z,99239.30
2018-02-25T10:29:05.215Z,99236.88
2018-02-25T10:31:34.793Z,99226.63
2018-02-25T10:34:04.468Z,99220.38
2018-02-25T10:36:34.411Z,99219.02
2018-02-25T10:39:03.700Z,99217.45
2018-02-25T10:41:33.462Z,99220.75
2018-02-25T10:44:03.107Z,99209.45
2018-02-25T10:46:32.670Z,99213.39
2018-02-25T10:49:02.445Z,99208.00
2018-02-25T10:51:32.139Z,99204.03
2018-02-25T10:54:01.748Z,99206.03
2018-02-25T10:56:31.334Z,99203.39
2018-02-25T10:59:00.922Z,99201.22
2018-02-25T11:01:30.503Z,99200.70
2018-02-25T11:04:00.101Z,99189.09
2018-02-25T11:06:29.696Z,99184.04
2018-02-25T11:08:59.289Z,99183.66
2018-02-25T11:11:28.917Z,99166.27
2018-02-25T11:13:58.596Z,99178.67
2018-02-25T11:16:28.306Z,99171.56
2018-02-25T11:18:58.009Z,99168.52
2018-02-25T11:21:27.822Z,99169.27
2018-02-25T11:23:57.420Z,99161.98
2018-02-25T11:26:27.270Z,99162.70
2018-02-25T11:28:57.257Z,99162.13
2018-02-25T11:31:27.116Z,99144.05
2018-02-25T11:33:57.202Z,99144.33
2018-02-25T11:36:27.010Z,99141.50
2018-02-25T11:38:56.801Z,99134.23
2018-02-25T11:41:27.344Z,99144.39
2018-02-25T11:43:57.247Z,99145.49
2018-02-25T11:46:27.063Z,99143.19
2018-02-25T11:48:56.881Z,99160.55
2018-02-25T11:51:30.733Z,99139.63
2018-02-25T11:54:00.372Z,99140.66
2018-02-25T11:56:30.219Z,99128.16
2018-02-25T11:59:00.038Z,99141.52
2018-02-25T12:01:29.830Z,99138.41
2018-02-25T12:03:59.674Z,99130.75
2018-02-25T12:06:29.461Z,99136.47
2018-02-25T12:08:59.256Z,99132.06
2018-02-25T12:11:29.065Z,99137.00
2018-02-25T12:13:59.098Z,99122.70
2018-02-25T12:16:28.891Z,99134.20
2018-02-25T12:18:58.735Z,99122.14
2018-02-25T12:21:28.493Z,99115.97
2018-02-25T12:23:59.317Z,99119.53
2018-02-25T12:26:29.284Z,99109.92
2018-02-25T12:28:59.154Z,99116.97
2018-02-25T12:31:29.106Z,99117.64
2018-02-25T12:33:58.889Z,99107.20
2018-02-25T12:36:28.865Z,99098.95
2018-02-25T12:38:58.726Z,99102.71
2018-02-25T12:41:28.545Z,99094.52
2018-02-25T12:43:58.394Z,99096.33
2018-02-25T12:46:28.254Z,99097.73
2018-02-25T12:48:57.915Z,99103.01
2018-02-25T12:51:27.720Z,99099.08
2018-02-25T12:53:58.082Z,99099.66
2018-02-25T12:56:27.945Z,99089.28
2018-02-25T12:58:57.792Z,99085.34
2018-02-25T13:01:27.960Z,99085.92
2018-02-25T13:03:58.192Z,99086.78
2018-02-25T13:06:28.151Z,99080.06
2018-02-25T13:08:58.757Z,99086.13
2018-02-25T13:11:28.602Z,99077.94
2018-02-25T13:13:59.726Z,99075.28
2018-02-25T13:16:30.417Z,99076.09
2018-02-25T13:19:00.237Z,99075.38
2018-02-25T13:21:30.072Z,99074.64
2018-02-25T13:24:00.025Z,99065.97
2018-02-25T13:26:29.922Z,99061.48
2018-02-25T13:28:59.731Z,99063.31
2018-02-25T13:31:29.648Z,99060.78
2018-02-25T13:33:59.459Z,99062.80
2018-02-25T13:36:29.377Z,99057.91
2018-02-25T13:38:59.725Z,99056.47
2018-02-25T13:41:29.598Z,99050.84
2018-02-25T13:43:59.532Z,99053.52
2018-02-25T13:46:29.552Z,99049.70
2018-02-25T13:49:08.531Z,99049.25
2018-02-25T13:51:38.968Z,99042.84
2018-02-25T13:54:08.860Z,99038.19
2018-02-25T13:56:38.531Z,99044.50
2018-02-25T13:59:09.430Z,99033.28
2018-02-25T14:01:39.917Z,99039.02
2018-02-25T14:04:10.798Z,99050.59
2018-02-25T14:06:41.011Z,99032.64
2018-02-25T14:09:11.854Z,99034.08
2018-02-25T14:11:42.169Z,99035.82
2018-02-25T14:14:17.455Z,99041.32
2018-02-25T14:16:47.348Z,99035.88
2018-02-25T14:19:17.332Z,99042.42
2018-02-25T14:21:47.341Z,99039.84
2018-02-25T14:24:17.219Z,99041.66
2018-02-25T14:26:47.158Z,99034.00
2018-02-25T14:29:17.048Z,99034.13
2018-02-25T14:31:46.930Z,99045.38
2018-02-25T14:34:18.191Z,99040.45
2018-02-25T14:36:48.101Z,99028.03
2018-02-25T14:39:18.092Z,99030.39
2018-02-25T14:41:47.986Z,99048.79
2018-02-25T14:44:17.822Z,99034.66
2018-02-25T14:46:47.733Z,99036.81
2018-02-25T14:49:17.709Z,99034.27
2018-02-25T14:51:47.806Z,99042.58
2018-02-25T14:54:17.750Z,99044.31
2018-02-25T14:56:48.295Z,99044.74
2018-02-25T14:59:18.297Z,99039.76
2018-02-25T15:01:48.258Z,99052.55
2018-02-25T15:04:18.240Z,99042.70
2018-02-25T15:06:48.916Z,99040.70
2018-02-25T15:09:18.945Z,99040.19
2018-02-25T15:11:48.998Z,99039.06
2018-02-25T15:14:18.919Z,99036.05
2018-02-25T15:17:10.027Z,99040.22
2018-02-25T15:19:53.677Z,99045.09
2018-02-25T15:22:23.645Z,99049.62
2018-02-25T15:24:53.558Z,99038.07
2018-02-25T15:27:23.549Z,99036.67
2018-02-25T15:29:59.889Z,99034.66
2018-02-25T15:32:31.729Z,99032.03
2018-02-25T15:35:01.990Z,99039.23
2018-02-25T15:37:32.065Z,99032.52
2018-02-25T15:40:02.015Z,99038.73
2018-02-25T15:42:33.288Z,99039.05
2018-02-25T15:45:03.425Z,99039.06
2018-02-25T15:50:54.380Z,99041.75
2018-02-25T15:53:24.273Z,99034.33
2018-02-25T15:55:54.152Z,99046.05
2018-02-25T15:58:24.160Z,99041.05
2018-02-25T16:00:54.156Z,99042.72
2018-02-25T16:03:24.776Z,99047.59
2018-02-25T16:05:54.699Z,99049.00
2018-02-25T16:08:24.703Z,99052.90
2018-02-25T16:10:54.690Z,99048.70
2018-02-25T16:13:25.910Z,99055.48
2018-02-25T16:15:55.873Z,99055.67
2018-02-25T16:18:25.757Z,99057.73
2018-02-25T16:20:57.076Z,99056.91
2018-02-25T16:23:26.988Z,99059.77
2018-02-25T16:25:56.645Z,99065.60
2018-02-25T16:28:26.555Z,99075.69
2018-02-25T16:30:58.321Z,99067.52
2018-02-25T16:33:31.632Z,99075.09
2018-02-25T16:38:49.635Z,99073.38
2018-02-25T16:46:47.170Z,99082.78
2018-02-25T16:49:16.876Z,99091.77
2018-02-25T16:51:48.641Z,99092.36
2018-02-25T16:54:19.271Z,99102.11
2018-02-25T16:56:57.474Z,99096.27
2018-02-25T16:59:27.389Z,99104.34
2018-02-25T17:01:58.269Z,99102.58
2018-02-25T17:04:28.646Z,99104.63
2018-02-25T17:07:00.107Z,99105.75
2018-02-25T17:12:34.804Z,99117.83
2018-02-25T17:15:04.762Z,99121.16
2018-02-25T17:17:36.768Z,99127.16
2018-02-25T17:20:07.033Z,99131.19
2018-02-25T17:22:37.618Z,99125.45
2018-02-25T17:25:07.497Z,99136.85
2018-02-25T17:27:37.979Z,99132.41
2018-02-25T17:30:07.924Z,99139.84
2018-02-25T17:32:38.860Z,99142.26
2018-02-25T17:35:23.529Z,99143.83
2018-02-25T17:37:53.434Z,99146.14
2018-02-25T17:40:23.685Z,99144.14
2018-02-25T17:42:53.621Z,99152.21
2018-02-25T17:45:23.712Z,99148.45
2018-02-25T17:47:53.608Z,99149.74
2018-02-25T17:50:23.586Z,99152.16
2018-02-25T17:52:53.502Z,99154.88
2018-02-25T17:55:24.521Z,99153.94
2018-02-25T17:57:53.525Z,99149.74
2018-02-25T18:00:23.505Z,99143.83
2018-02-25T18:02:53.418Z,99150.24
2018-02-25T18:05:23.462Z,99149.98
2018-02-25T18:07:55.574Z,99153.97
2018-02-25T18:10:25.491Z,99158.06
2018-02-25T18:12:56.459Z,99156.42
2018-02-25T18:15:27.438Z,99158.28
2018-02-25T18:17:57.395Z,99161.73
2018-02-25T18:20:27.249Z,99164.30
2018-02-25T18:22:57.320Z,99162.81
2018-02-25T18:25:27.123Z,99167.85
2018-02-25T18:27:58.376Z,99159.27
2018-02-25T18:30:28.454Z,99157.13
2018-02-25T18:32:58.355Z,99159.95
2018-02-25T18:35:28.334Z,99165.05
2018-02-25T18:37:58.691Z,99159.75
2018-02-25T18:40:28.712Z,99164.20
2018-02-25T18:42:58.658Z,99165.36
2018-02-25T18:45:28.451Z,99159.44
2018-02-25T18:47:58.304Z,99162.37
2018-02-25T18:50:28.265Z,99167.50
2018-02-25T18:52:58.257Z,99170.91
2018-02-25T18:55:28.160Z,99173.48
2018-02-25T18:57:58.739Z,99175.10
2018-02-25T19:00:28.622Z,99182.86
2018-02-25T19:03:00.002Z,99180.45
2018-02-25T19:05:29.929Z,99186.66
2018-02-25T19:07:59.761Z,99185.27
2018-02-25T19:10:29.888Z,99186.46
2018-02-25T19:13:00.223Z,99190.92
2018-02-25T19:15:30.163Z,99188.50
2018-02-25T19:18:00.587Z,99187.59
2018-02-25T19:20:30.928Z,99186.31
2018-02-25T19:23:00.543Z,99190.97
2018-02-25T19:25:30.475Z,99185.20
2018-02-25T19:28:00.158Z,99182.45
2018-02-25T19:30:30.271Z,99185.79
2018-02-25T19:33:00.286Z,99181.50
2018-02-25T19:35:35.563Z,99180.72
2018-02-25T19:38:12.457Z,99174.77
2018-02-25T19:40:47.870Z,99181.56
2018-02-25T19:43:17.889Z,99176.39
2018-02-25T19:45:48.133Z,99182.12
2018-02-25T19:48:18.015Z,99178.89
2018-02-25T19:50:47.943Z,99181.92
2018-02-25T19:53:17.913Z,99190.15
2018-02-25T19:55:47.802Z,99183.13
2018-02-25T19:58:17.920Z,99188.45
2018-02-25T20:04:09.958Z,99194.31
2018-02-25T20:06:51.950Z,99190.48
2018-02-25T20:09:22.034Z,99188.22
2018-02-25T20:11:52.053Z,99175.88
2018-02-25T20:14:22.052Z,99192.41
2018-02-25T20:16:51.965Z,99178.78
2018-02-25T20:19:21.862Z,99177.42
2018-02-25T20:21:55.829Z,99185.02
2018-02-25T20:24:25.691Z,99174.22
2018-02-25T20:26:55.884Z,99172.19
2018-02-25T20:29:25.857Z,99169.69
2018-02-25T20:31:55.724Z,99172.45
2018-02-25T20:34:25.941Z,99170.36
2018-02-25T20:36:55.774Z,99167.47
2018-02-25T20:39:25.660Z,99166.03
2018-02-25T20:41:55.489Z,99166.59
2018-02-25T20:44:25.207Z,99168.08
2018-02-25T20:46:54.865Z,99168.25
2018-02-25T20:49:25.207Z,99169.44
2018-02-25T20:51:55.076Z,99166.07
2018-02-25T20:54:25.072Z,99162.52
2018-02-25T20:56:54.962Z,99161.00
2018-02-25T20:59:24.785Z,99158.08
2018-02-25T21:01:56.265Z,99161.03
2018-02-25T21:04:26.209Z,99159.25
2018-02-25T21:06:56.139Z,99158.84
2018-02-25T21:09:28.642Z,99158.94
2018-02-25T21:12:16.003Z,99155.34
2018-02-25T21:14:46.491Z,99159.33
2018-02-25T21:17:16.374Z,99159.38
2018-02-25T21:19:46.379Z,99161.28
2018-02-25T21:22:16.655Z,99156.21
2018-02-25T21:24:46.707Z,99162.77
2018-02-25T21:27:16.802Z,99161.42
2018-02-25T21:29:46.749Z,99169.48
2018-02-25T21:32:16.867Z,99169.86
2018-02-25T21:34:46.864Z,99172.44
2018-02-25T21:37:16.763Z,99175.33
2018-02-25T21:39:46.703Z,99171.73
2018-02-25T21:42:16.755Z,99179.21
2018-02-25T21:44:46.619Z,99173.08
2018-02-25T21:47:16.453Z,99183.50
2018-02-25T21:49:46.326Z,99173.02
2018-02-25T21:52:16.068Z,99171.77
2018-02-25T21:54:51.602Z,99175.47
2018-02-25T21:57:26.741Z,99168.92
2018-02-25T22:00:02.880Z,99169.94
2018-02-25T22:02:38.010Z,99162.97
2018-02-25T22:05:08.938Z,99164.76
2018-02-25T22:07:38.819Z,99161.82
2018-02-25T22:10:08.741Z,99158.98
2018-02-25T22:12:39.026Z,99160.33
2018-02-25T22:15:09.278Z,99154.83
2018-02-25T22:17:39.165Z,99157.98
2018-02-25T22:31:42.536Z,99169.64
2018-02-25T22:34:13.072Z,99171.25
2018-02-25T22:36:43.164Z,99176.05
2018-02-25T22:39:14.813Z,99172.21
2018-02-25T22:41:45.784Z,99179.81
2018-02-25T22:44:15.861Z,99183.63
2018-02-25T22:46:45.724Z,99179.89
2018-02-25T22:49:15.564Z,99176.17
2018-02-25T22:51:45.431Z,99174.37
2018-02-25T22:54:15.417Z,99183.87
2018-02-25T22:56:45.898Z,99182.06
2018-02-25T23:02:41.010Z,99186.16
2018-02-25T23:05:24.046Z,99179.77
2018-02-25T23:07:54.037Z,99185.28
2018-02-25T23:14:00.474Z,99183.64
2018-02-25T23:16:32.555Z,99181.59
2018-02-25T23:19:02.469Z,99180.15
2018-02-25T23:21:43.798Z,99182.72
2018-02-25T23:24:13.648Z,99181.41
2018-02-25T23:26:49.003Z,99178.23
2018-02-25T23:29:28.707Z,99181.64
2018-02-25T23:32:04.706Z,99176.33
2018-02-25T23:34:37.783Z,99178.89
2018-02-25T23:37:08.752Z,99178.80
2018-02-25T23:39:41.167Z,99175.58
2018-02-25T23:42:29.014Z,99174.84
2018-02-25T23:44:59.090Z,99166.50
2018-02-25T23:47:35.441Z,99167.05
2018-02-25T23:50:08.107Z,99164.78
2018-02-25T23:52:38.955Z,99164.11
2018-02-25T23:55:08.967Z,99158.61
2018-02-25T23:57:38.781Z,99164.14
